Weather History for Rockland, ME

Change the Weather History Date:

Saturday, November 13, 2010

  Actual Average Record
Temperature  
Mean Temperature 44 °F -  
Max Temperature 60 °F 43 °F 60 °F (2010)
Min Temperature 28 °F 30 °F 21 °F (2013)
Degree Days  
Heating Degree Days 21    
Moisture  
Dew Point 32 °F    
Average Humidity 69    
Maximum Humidity 93    
Minimum Humidity 42    
Precipitation  
Precipitation 0.00 in - - ()
Sea Level Pressure  
Sea Level Pressure 30.19 in    
Wind  
Wind Speed 2 mph (ESE)    
Max Wind Speed 5 mph    
Max Gust Speed -    
Visibility 9 miles    
Events      
Averages and records for this station are not official NWS values.
T = Trace of Precipitation, MM = Missing Value Source: NWS Daily Summary

Daily Weather History Graph

Daily Weather History Graph

Search for Another Location

Airport:

Trip Planner

Search our weather history database for the weather conditions in past years. The results will help you decide how hot, cold, wet, or windy it might be!

Date:

Astronomy

Nov. 13, 2010 Rise Set
Actual Time 6:28 AM EST 4:12 PM EST
Civil Twilight 5:57 AM EST 4:43 PM EST
Nautical Twilight 5:22 AM EST 5:17 PM EST
Astronomical Twilight 4:48 AM EST 5:51 PM EST
Moon 12:19 PM EST (11/13) 11:20 PM EST (11/13)
Length of Visible Light 10h 45m
Length of Day
9h 43m
Waxing Crescent, 50% of the Moon is Illuminated
Nov 13
Waxing Crescent
Nov 21
Full
Nov 28
Last Quarter
Dec 5
New
Dec 13
First Quarter

Hourly Weather History & Observations

Time (EST) Temp. Windchill Dew Point Humidity Pressure Visibility Wind Dir Wind Speed Gust Speed Precip Events Conditions
12:15 AM 33.8 °F 29.6 °F 28.4 °F 81% 30.32 in 10.0 mi West 4.6 mph - N/A   Clear
12:35 AM 32.0 °F 28.7 °F 26.6 °F 80% 30.31 in 10.0 mi West 3.5 mph - N/A   Clear
1:15 AM 32.0 °F - 26.6 °F 80% 30.30 in 10.0 mi Calm Calm - N/A   Clear
1:35 AM 32.0 °F - 26.6 °F 80% 30.30 in 10.0 mi Calm Calm - N/A   Clear
1:55 AM 32.0 °F - 26.6 °F 80% 30.29 in 10.0 mi Calm Calm - N/A   Clear
2:15 AM 30.2 °F - 26.6 °F 86% 30.29 in 10.0 mi Calm Calm - N/A   Clear
2:35 AM 30.2 °F - 26.6 °F 86% 30.28 in 10.0 mi Calm Calm - N/A   Clear
2:55 AM 30.2 °F - 26.6 °F 86% 30.28 in 10.0 mi Calm Calm - N/A   Clear
3:15 AM 30.2 °F - 26.6 °F 86% 30.27 in 10.0 mi Calm Calm - N/A   Clear
3:35 AM 30.2 °F - 26.6 °F 86% 30.27 in 10.0 mi Calm Calm - N/A   Clear
3:55 AM 30.2 °F 25.4 °F 24.8 °F 80% 30.27 in 10.0 mi West 4.6 mph - N/A   Clear
4:35 AM 30.2 °F 26.7 °F 26.6 °F 86% 30.26 in 10.0 mi West 3.5 mph - N/A   Clear
4:55 AM 30.2 °F 26.7 °F 26.6 °F 86% 30.26 in 10.0 mi West 3.5 mph - N/A   Clear
5:15 AM 28.4 °F 24.6 °F 24.8 °F 86% 30.25 in 10.0 mi WNW 3.5 mph - N/A   Clear
5:35 AM 30.2 °F 26.7 °F 26.6 °F 86% 30.25 in 10.0 mi WNW 3.5 mph - N/A   Clear
5:55 AM 30.2 °F - 26.6 °F 86% 30.24 in 10.0 mi Calm Calm - N/A   Clear
6:15 AM 30.2 °F - 26.6 °F 86% 30.24 in 10.0 mi Calm Calm - N/A   Clear
6:35 AM 30.2 °F - 26.6 °F 86% 30.24 in 10.0 mi Calm Calm - N/A   Clear
6:55 AM 30.2 °F - 26.6 °F 86% 30.24 in 10.0 mi Calm Calm - N/A   Clear
7:15 AM 30.2 °F - 28.4 °F 93% 30.25 in 10.0 mi Calm Calm - N/A   Clear
7:35 AM 33.8 °F - 30.2 °F 87% 30.25 in 10.0 mi Calm Calm - N/A   Clear
7:55 AM 37.4 °F - 33.8 °F 87% 30.24 in 10.0 mi Calm Calm - N/A   Clear
8:15 AM 41.0 °F - 35.6 °F 81% 30.24 in 10.0 mi Calm Calm - N/A   Clear
8:35 AM 46.4 °F - 37.4 °F 71% 30.23 in 10.0 mi Calm Calm - N/A   Clear
8:55 AM 50.0 °F - 39.2 °F 66% 30.23 in 10.0 mi Calm Calm - N/A   Clear
9:15 AM 51.8 °F - 37.4 °F 58% 30.23 in 10.0 mi West 3.5 mph - N/A   Clear
9:35 AM 53.6 °F - 39.2 °F 58% 30.23 in 10.0 mi Calm Calm - N/A   Clear
9:55 AM 55.4 °F - 37.4 °F 51% 30.22 in 10.0 mi Calm Calm - N/A   Clear
10:15 AM 57.2 °F - 37.4 °F 48% 30.21 in 8.0 mi Calm Calm - N/A   Clear
10:35 AM 59.0 °F - 37.4 °F 45% 30.20 in 5.0 mi Calm Calm - N/A   Clear
10:55 AM 60.8 °F - 37.4 °F 42% 30.19 in 10.0 mi NNE 3.5 mph - N/A   Clear
11:15 AM 60.8 °F - 39.2 °F 45% 30.18 in 10.0 mi East 3.5 mph - N/A   Clear
11:35 AM 59.0 °F - 39.2 °F 48% 30.17 in 3.0 mi ESE 4.6 mph - N/A   Clear
11:55 AM 57.2 °F - 39.2 °F 51% 30.16 in 0.8 mi East 4.6 mph - N/A   Unknown
12:15 PM 57.2 °F - 37.4 °F 48% 30.15 in 2.5 mi East 4.6 mph - N/A   Clear
12:35 PM 57.2 °F - 37.4 °F 48% 30.15 in 1.8 mi East 4.6 mph - N/A   Clear
12:55 PM 59.0 °F - 37.4 °F 45% 30.14 in 1.0 mi East 4.6 mph - N/A   Clear
1:15 PM 59.0 °F - 35.6 °F 42% 30.13 in 8.0 mi ESE 4.6 mph - N/A   Clear
1:35 PM 59.0 °F - 37.4 °F 45% 30.13 in 10.0 mi South 4.6 mph - N/A   Clear
1:55 PM 59.0 °F - 37.4 °F 45% 30.12 in 10.0 mi SSE 3.5 mph - N/A   Clear
2:15 PM 59.0 °F - 37.4 °F 45% 30.12 in 10.0 mi Calm Calm - N/A   Clear
2:35 PM 59.0 °F - 37.4 °F 45% 30.12 in 10.0 mi East 3.5 mph - N/A   Clear
2:55 PM 57.2 °F - 37.4 °F 48% 30.12 in 10.0 mi Calm Calm - N/A   Clear
3:15 PM 59.0 °F - 37.4 °F 45% 30.11 in 10.0 mi SSE 3.5 mph - N/A   Clear
3:35 PM 57.2 °F - 35.6 °F 44% 30.12 in 10.0 mi Calm Calm - N/A   Clear
3:55 PM 55.4 °F - 33.8 °F 44% 30.12 in 10.0 mi Calm Calm - N/A   Clear
4:15 PM 53.6 °F - 33.8 °F 47% 30.12 in 10.0 mi Calm Calm - N/A   Clear
4:35 PM 48.2 °F - 33.8 °F 58% 30.12 in 10.0 mi Calm Calm - N/A   Clear
4:55 PM 46.4 °F - 33.8 °F 62% 30.12 in 10.0 mi Calm Calm - N/A   Clear
5:15 PM 44.6 °F - 33.8 °F 66% 30.13 in 10.0 mi Calm Calm - N/A   Clear
5:55 PM 41.0 °F - 33.8 °F 76% 30.13 in 10.0 mi Calm Calm - N/A   Clear
6:15 PM 39.2 °F - 33.8 °F 81% 30.13 in 10.0 mi Calm Calm - N/A   Clear
6:35 PM 39.2 °F - 33.8 °F 81% 30.13 in 10.0 mi Calm Calm - N/A   Clear
6:55 PM 37.4 °F - 32.0 °F 81% 30.14 in 10.0 mi Calm Calm - N/A   Clear
7:15 PM 39.2 °F - 33.8 °F 81% 30.14 in 10.0 mi Calm Calm - N/A   Clear
7:35 PM 37.4 °F - 33.8 °F 87% 30.14 in 10.0 mi Calm Calm - N/A   Clear
7:55 PM 35.6 °F - 30.2 °F 81% 30.14 in 10.0 mi Calm Calm - N/A   Clear
8:15 PM 37.4 °F - 33.8 °F 87% 30.14 in 10.0 mi Calm Calm - N/A   Clear
8:35 PM 35.6 °F - 30.2 °F 81% 30.14 in 10.0 mi Calm Calm - N/A   Clear
8:55 PM 35.6 °F - 30.2 °F 81% 30.14 in 10.0 mi Calm Calm - N/A   Clear
9:15 PM 37.4 °F - 32.0 °F 81% 30.14 in 10.0 mi Calm Calm - N/A   Clear
9:35 PM 35.6 °F 32.8 °F 32.0 °F 87% 30.14 in 10.0 mi NNE 3.5 mph - N/A   Clear
9:55 PM 35.6 °F - 28.4 °F 75% 30.14 in 10.0 mi Calm Calm - N/A   Clear
10:15 PM 46.4 °F 45.2 °F 32.0 °F 57% 30.14 in 10.0 mi North 3.5 mph - N/A   Clear
10:35 PM 48.2 °F - 32.0 °F 54% 30.14 in 10.0 mi North 4.6 mph - N/A   Clear
10:55 PM 48.2 °F - 33.8 °F 58% 30.14 in 10.0 mi NNE 6.9 mph - N/A   Clear
11:15 PM 48.2 °F - 32.0 °F 54% 30.14 in 10.0 mi NNE 10.4 mph - N/A   Clear
11:35 PM 48.2 °F - 33.8 °F 58% 30.15 in 10.0 mi NE 10.4 mph - N/A   Clear
11:55 PM 48.2 °F - 32.0 °F 54% 30.15 in 5.0 mi NNE 10.4 mph - N/A   Clear